createdAt,value
2022-12-15T00:02:21.655Z,3.00
2022-12-15T00:05:07.762Z,3.00
2022-12-15T00:07:54.059Z,3.00
2022-12-15T00:10:39.324Z,3.00
2022-12-15T00:13:32.775Z,3.00
2022-12-15T00:16:18.681Z,3.00
2022-12-15T00:19:04.767Z,3.00
2022-12-15T00:21:50.118Z,3.00
2022-12-15T00:24:35.945Z,3.00
2022-12-15T00:27:21.551Z,3.00
2022-12-15T00:30:06.823Z,3.00
2022-12-15T00:32:52.424Z,3.00
2022-12-15T00:35:37.716Z,3.00
2022-12-15T00:38:31.933Z,3.00
2022-12-15T00:40:59.747Z,3.00
2022-12-15T00:43:35.252Z,2.90
2022-12-15T00:46:21.793Z,3.00
2022-12-15T00:48:48.952Z,3.00
2022-12-15T00:51:16.504Z,3.00
2022-12-15T00:54:02.341Z,3.00
2022-12-15T00:56:47.702Z,3.00
2022-12-15T00:59:34.111Z,3.00
2022-12-15T01:02:20.828Z,3.00
2022-12-15T01:05:06.577Z,3.00
2022-12-15T01:07:51.933Z,3.00
2022-12-15T01:10:38.837Z,2.90
2022-12-15T01:13:24.446Z,2.90
2022-12-15T01:16:10.089Z,2.90
2022-12-15T01:18:55.572Z,2.90
2022-12-15T01:21:25.060Z,2.90
2022-12-15T01:23:52.669Z,2.90
2022-12-15T01:26:19.798Z,2.90
2022-12-15T01:28:46.670Z,2.90
2022-12-15T01:31:13.712Z,2.90
2022-12-15T01:33:42.660Z,2.90
2022-12-15T01:36:10.678Z,2.90
2022-12-15T01:38:37.872Z,2.90
2022-12-15T01:41:09.561Z,3.00
2022-12-15T01:43:38.656Z,3.00
2022-12-15T01:46:05.580Z,2.90
2022-12-15T01:48:46.931Z,2.90
2022-12-15T01:51:19.790Z,2.90
2022-12-15T01:53:59.060Z,2.90
2022-12-15T01:56:31.223Z,2.90
2022-12-15T01:59:04.876Z,2.90
2022-12-15T02:01:31.929Z,3.00
2022-12-15T02:03:58.964Z,2.90
2022-12-15T02:06:28.201Z,2.90
2022-12-15T02:08:57.140Z,2.90
2022-12-15T02:11:35.900Z,2.90
2022-12-15T02:14:05.382Z,2.90
2022-12-15T02:16:39.064Z,2.90
2022-12-15T02:19:27.035Z,2.90
2022-12-15T02:22:22.661Z,2.90
2022-12-15T02:24:52.182Z,2.90
2022-12-15T02:27:47.478Z,2.90
2022-12-15T02:30:33.033Z,2.90
2022-12-15T02:33:27.423Z,2.90
2022-12-15T02:36:04.438Z,2.80
2022-12-15T02:38:35.174Z,2.80
2022-12-15T02:41:04.627Z,2.80
2022-12-15T02:43:36.252Z,2.80
2022-12-15T02:46:27.071Z,2.80
2022-12-15T02:49:03.211Z,2.80
2022-12-15T02:51:44.681Z,2.80
2022-12-15T02:54:24.914Z,2.80
2022-12-15T02:56:54.741Z,2.80
2022-12-15T02:59:44.184Z,2.80
2022-12-15T03:02:13.280Z,2.80
2022-12-15T03:04:42.605Z,2.80
2022-12-15T03:07:10.653Z,2.90
2022-12-15T03:09:37.744Z,2.90
2022-12-15T03:12:05.243Z,2.90
2022-12-15T03:14:32.771Z,2.90
2022-12-15T03:16:59.651Z,2.90
2022-12-15T03:19:26.560Z,2.80
2022-12-15T03:21:53.406Z,2.80
2022-12-15T03:24:20.220Z,2.80
2022-12-15T03:26:50.089Z,2.80
2022-12-15T03:29:18.038Z,2.90
2022-12-15T03:31:45.459Z,2.90
2022-12-15T03:34:12.327Z,2.90
2022-12-15T03:36:39.251Z,2.90
2022-12-15T03:39:06.668Z,2.90
2022-12-15T03:41:33.439Z,2.90
2022-12-15T03:44:00.723Z,2.90
2022-12-15T03:46:27.540Z,2.90
2022-12-15T03:48:54.346Z,2.80
2022-12-15T03:51:21.627Z,2.80
2022-12-15T03:53:49.327Z,2.80
2022-12-15T03:56:17.335Z,2.80
2022-12-15T03:58:44.330Z,2.80
2022-12-15T04:01:28.845Z,2.80
2022-12-15T04:04:00.487Z,2.80
2022-12-15T04:06:29.275Z,2.80
2022-12-15T04:08:56.407Z,2.80
2022-12-15T04:11:23.251Z,2.80
2022-12-15T04:13:50.105Z,2.80
2022-12-15T04:16:20.141Z,2.80
2022-12-15T04:19:08.258Z,2.80
2022-12-15T04:21:35.057Z,2.80
2022-12-15T04:24:20.702Z,2.80
2022-12-15T04:27:05.894Z,2.80
2022-12-15T04:29:51.249Z,2.80
2022-12-15T04:32:36.526Z,2.80
2022-12-15T04:35:22.139Z,2.80
2022-12-15T04:38:07.475Z,2.70
2022-12-15T04:40:53.762Z,2.70
2022-12-15T04:43:39.491Z,2.70
2022-12-15T04:46:25.019Z,2.60
2022-12-15T04:49:10.596Z,2.60
2022-12-15T04:51:55.940Z,2.60
2022-12-15T04:54:41.301Z,2.60
2022-12-15T04:57:26.526Z,2.60
2022-12-15T05:00:12.073Z,2.60
2022-12-15T05:02:57.431Z,2.60
2022-12-15T05:05:42.700Z,2.60
2022-12-15T05:08:27.927Z,2.60
2022-12-15T05:11:13.160Z,2.60
2022-12-15T05:13:58.867Z,2.60
2022-12-15T05:16:44.264Z,2.60
2022-12-15T05:19:29.564Z,2.60
2022-12-15T05:22:14.906Z,2.60
2022-12-15T05:25:00.522Z,2.60
2022-12-15T05:27:45.950Z,2.60
2022-12-15T05:30:31.305Z,2.60
2022-12-15T05:32:58.176Z,2.60
2022-12-15T05:35:25.034Z,2.60
2022-12-15T05:37:51.892Z,2.60
2022-12-15T05:40:18.690Z,2.60
2022-12-15T05:42:50.114Z,2.70
2022-12-15T05:45:17.249Z,2.70
2022-12-15T05:47:44.010Z,2.80
2022-12-15T05:50:10.821Z,2.70
2022-12-15T05:52:37.603Z,2.70
2022-12-15T05:55:05.866Z,2.70
2022-12-15T05:57:32.648Z,2.70
2022-12-15T05:59:59.423Z,2.70
2022-12-15T06:02:28.564Z,2.60
2022-12-15T06:04:55.539Z,2.60
2022-12-15T06:07:22.737Z,2.60
2022-12-15T06:09:49.541Z,2.60
2022-12-15T06:12:16.659Z,2.60
2022-12-15T06:14:43.419Z,2.60
2022-12-15T06:17:10.320Z,2.60
2022-12-15T06:19:37.108Z,2.60
2022-12-15T06:22:04.159Z,2.60
2022-12-15T06:24:31.079Z,2.60
2022-12-15T06:26:57.919Z,2.60
2022-12-15T06:29:24.842Z,2.60
2022-12-15T06:31:51.793Z,2.70
2022-12-15T06:34:18.701Z,2.70
2022-12-15T06:36:45.559Z,2.70
2022-12-15T06:39:15.256Z,2.70
2022-12-15T06:41:43.148Z,2.70
2022-12-15T06:44:14.643Z,2.80
2022-12-15T06:46:41.838Z,2.80
2022-12-15T06:49:09.245Z,2.80
2022-12-15T06:51:36.659Z,2.80
2022-12-15T06:54:03.614Z,2.80
2022-12-15T06:56:35.994Z,2.80
2022-12-15T06:59:04.744Z,2.80
2022-12-15T07:01:32.410Z,2.70
2022-12-15T07:04:01.476Z,2.70
2022-12-15T07:06:31.918Z,2.70
2022-12-15T07:08:59.062Z,2.70
2022-12-15T07:11:25.964Z,2.70
2022-12-15T07:13:53.786Z,2.70
2022-12-15T07:16:22.390Z,2.60
2022-12-15T07:18:49.948Z,2.60
2022-12-15T07:21:17.511Z,2.70
2022-12-15T07:24:00.922Z,2.70
2022-12-15T07:26:28.539Z,2.70
2022-12-15T07:28:56.074Z,2.70
2022-12-15T07:31:23.363Z,2.60
2022-12-15T07:33:52.261Z,2.60
2022-12-15T07:36:19.638Z,2.60
2022-12-15T07:38:50.604Z,2.60
2022-12-15T07:41:19.544Z,2.60
2022-12-15T07:43:47.770Z,2.50
2022-12-15T07:46:15.194Z,2.50
2022-12-15T07:48:42.128Z,2.50
2022-12-15T07:51:17.221Z,2.60
2022-12-15T07:53:50.203Z,2.50
2022-12-15T07:56:20.819Z,2.60
2022-12-15T07:58:48.125Z,2.60
2022-12-15T08:01:15.885Z,2.60
2022-12-15T08:03:43.332Z,2.60
2022-12-15T08:06:13.069Z,2.60
2022-12-15T08:08:40.671Z,2.60
2022-12-15T08:11:13.568Z,2.60
2022-12-15T08:16:29.245Z,2.60
2022-12-15T08:18:57.274Z,2.60
2022-12-15T08:21:24.645Z,2.70
2022-12-15T08:23:51.481Z,2.70
2022-12-15T08:26:20.686Z,2.70
2022-12-15T08:28:50.548Z,2.70
2022-12-15T08:31:20.041Z,2.70
2022-12-15T08:33:47.461Z,2.80
2022-12-15T08:36:16.649Z,2.80
2022-12-15T08:38:45.595Z,2.80
2022-12-15T08:41:23.401Z,2.80
2022-12-15T08:43:51.317Z,2.80
2022-12-15T08:46:20.935Z,2.90
2022-12-15T08:48:48.831Z,2.90
2022-12-15T08:51:16.382Z,2.90
2022-12-15T08:53:43.552Z,3.00
2022-12-15T08:56:15.992Z,3.00
2022-12-15T08:58:43.325Z,3.10
2022-12-15T09:01:19.013Z,3.10
2022-12-15T09:03:50.504Z,3.20
2022-12-15T09:06:20.633Z,3.20
2022-12-15T09:08:48.551Z,3.20
2022-12-15T09:11:17.342Z,3.30
2022-12-15T09:13:44.601Z,3.30
2022-12-15T09:16:14.826Z,3.40
2022-12-15T09:18:47.043Z,3.50
2022-12-15T09:21:14.513Z,3.50
2022-12-15T09:23:42.463Z,3.50
2022-12-15T09:26:12.910Z,3.50
2022-12-15T09:28:40.029Z,3.60
2022-12-15T09:31:15.174Z,3.70
2022-12-15T09:33:43.285Z,3.70
2022-12-15T09:36:13.213Z,3.80
2022-12-15T09:38:42.013Z,3.80
2022-12-15T09:41:09.519Z,3.80
2022-12-15T09:43:46.562Z,3.90
2022-12-15T09:46:26.591Z,3.90
2022-12-15T09:48:55.882Z,4.00
2022-12-15T09:51:34.717Z,4.00
2022-12-15T09:54:02.150Z,4.10
2022-12-15T09:56:49.800Z,4.10
2022-12-15T09:59:25.619Z,4.20
2022-12-15T10:02:21.391Z,4.20
2022-12-15T10:05:00.117Z,4.20
2022-12-15T10:07:42.109Z,4.20
2022-12-15T10:10:24.213Z,4.30
2022-12-15T10:13:02.062Z,4.30
2022-12-15T10:16:07.524Z,4.30
2022-12-15T10:18:57.574Z,4.40
2022-12-15T10:21:29.095Z,4.40
2022-12-15T10:27:51.959Z,4.50
2022-12-15T10:30:19.344Z,4.60
2022-12-15T10:33:03.593Z,4.60
2022-12-15T10:35:36.018Z,4.70
2022-12-15T10:38:05.999Z,4.80
2022-12-15T10:40:50.484Z,4.80
2022-12-15T10:43:25.832Z,4.90
2022-12-15T10:46:20.722Z,4.90
2022-12-15T10:49:21.235Z,4.90
2022-12-15T10:51:57.435Z,4.90
2022-12-15T10:54:32.337Z,4.90
2022-12-15T10:57:03.423Z,4.90
2022-12-15T10:59:37.312Z,5.00
2022-12-15T11:02:25.744Z,5.00
2022-12-15T11:05:16.123Z,5.00
2022-12-15T11:07:46.243Z,5.10
2022-12-15T11:10:22.521Z,5.10
2022-12-15T11:13:16.687Z,5.10
2022-12-15T11:15:51.803Z,5.10
2022-12-15T11:18:39.410Z,5.20
2022-12-15T11:21:17.280Z,5.20
2022-12-15T11:24:13.646Z,5.30
2022-12-15T11:26:40.464Z,5.30
2022-12-15T11:29:16.627Z,5.30
2022-12-15T11:31:45.329Z,5.40
2022-12-15T11:34:18.318Z,5.40
2022-12-15T11:36:48.447Z,5.50
2022-12-15T11:39:18.708Z,5.50
2022-12-15T11:41:53.979Z,5.60
2022-12-15T11:44:39.546Z,5.60
2022-12-15T11:47:31.460Z,5.60
2022-12-15T11:50:26.355Z,5.60
2022-12-15T11:53:25.722Z,5.70
2022-12-15T11:56:07.018Z,5.70
2022-12-15T11:59:15.279Z,5.70
2022-12-15T12:02:03.897Z,5.80
2022-12-15T12:04:50.892Z,5.80
2022-12-15T12:07:23.741Z,5.80
2022-12-15T12:10:14.375Z,5.90
2022-12-15T12:12:52.265Z,5.90
2022-12-15T12:15:30.071Z,5.90
2022-12-15T12:18:07.560Z,6.00
2022-12-15T12:20:42.313Z,6.00
2022-12-15T12:23:29.414Z,6.10
2022-12-15T12:26:15.668Z,6.10
2022-12-15T12:28:50.217Z,6.20
2022-12-15T12:31:52.351Z,6.20
2022-12-15T12:34:45.578Z,6.20
2022-12-15T12:37:34.532Z,6.30
2022-12-15T12:40:07.523Z,6.20
2022-12-15T12:42:42.398Z,6.30
2022-12-15T12:45:13.640Z,6.30
2022-12-15T12:47:44.824Z,6.30
2022-12-15T12:50:20.203Z,6.40
2022-12-15T12:52:57.358Z,6.40
2022-12-15T12:55:26.286Z,6.50
2022-12-15T12:57:54.525Z,6.50
2022-12-15T13:00:29.807Z,6.50
2022-12-15T13:03:17.274Z,6.60
2022-12-15T13:05:46.318Z,6.60
2022-12-15T13:08:15.742Z,6.60
2022-12-15T13:10:45.318Z,6.70
2022-12-15T13:13:32.919Z,6.70
2022-12-15T13:16:12.031Z,6.70
2022-12-15T13:19:03.645Z,6.70
2022-12-15T13:21:45.717Z,6.80
2022-12-15T13:24:56.190Z,6.80
2022-12-15T13:27:24.099Z,6.80
2022-12-15T13:30:07.334Z,6.80
2022-12-15T13:32:36.955Z,6.80
2022-12-15T13:35:32.162Z,6.80
2022-12-15T13:38:03.005Z,6.90
2022-12-15T13:40:51.901Z,6.90
2022-12-15T13:43:27.155Z,7.00
2022-12-15T13:45:59.201Z,7.00
2022-12-15T13:48:56.497Z,7.00
2022-12-15T13:51:26.361Z,7.00
2022-12-15T13:54:18.076Z,7.00
2022-12-15T13:56:50.847Z,7.00
2022-12-15T13:59:25.753Z,7.10
2022-12-15T14:01:53.745Z,7.10
2022-12-15T14:04:21.902Z,7.10
2022-12-15T14:07:01.617Z,7.10
2022-12-15T14:09:35.506Z,7.20
2022-12-15T14:12:05.019Z,7.20
2022-12-15T14:14:37.069Z,7.20
2022-12-15T14:17:09.743Z,7.20
2022-12-15T14:19:42.126Z,7.20
2022-12-15T14:22:29.065Z,7.30
2022-12-15T14:25:18.477Z,7.30
2022-12-15T14:27:45.512Z,7.20
2022-12-15T14:30:29.603Z,7.30
2022-12-15T14:33:07.098Z,7.30
2022-12-15T14:35:49.610Z,7.30
2022-12-15T14:38:44.912Z,7.30
2022-12-15T14:41:22.195Z,7.30
2022-12-15T14:44:36.252Z,7.30
2022-12-15T14:46:38.450Z,7.20
2022-12-15T14:49:07.556Z,7.30
2022-12-15T14:51:43.424Z,7.20
2022-12-15T14:54:32.024Z,7.30
2022-12-15T14:57:21.042Z,7.20
2022-12-15T14:59:49.450Z,7.20
2022-12-15T15:02:26.691Z,7.20
2022-12-15T15:03:09.452Z,4.40
2022-12-15T15:05:05.607Z,7.20
2022-12-15T15:07:33.773Z,7.20
2022-12-15T15:10:02.119Z,7.20
2022-12-15T15:12:45.799Z,7.20
2022-12-15T15:15:19.805Z,7.20
2022-12-15T15:17:52.870Z,7.20
2022-12-15T15:20:27.787Z,7.20
2022-12-15T15:23:12.572Z,7.10
2022-12-15T15:25:41.554Z,7.10
2022-12-15T15:28:18.041Z,7.10
2022-12-15T15:30:50.893Z,7.10
2022-12-15T15:33:19.404Z,7.10
2022-12-15T15:35:53.254Z,7.00
2022-12-15T15:38:23.580Z,7.00
2022-12-15T15:40:56.024Z,7.00
2022-12-15T15:43:24.424Z,6.90
2022-12-15T15:46:08.655Z,6.90
2022-12-15T15:49:09.810Z,6.80
2022-12-15T15:51:37.763Z,6.80
2022-12-15T15:54:13.995Z,6.70
2022-12-15T15:56:41.567Z,6.70
2022-12-15T15:59:28.952Z,6.60
2022-12-15T16:01:56.380Z,6.60
2022-12-15T16:04:24.249Z,6.50
2022-12-15T16:06:52.256Z,6.50
2022-12-15T16:09:19.357Z,6.40
2022-12-15T16:11:46.996Z,6.40
2022-12-15T16:14:16.098Z,6.30
2022-12-15T16:16:44.120Z,6.30
2022-12-15T16:19:12.319Z,6.30
2022-12-15T16:21:40.896Z,6.20
2022-12-15T16:24:17.668Z,6.20
2022-12-15T16:26:50.525Z,6.20
2022-12-15T16:29:20.373Z,6.20
2022-12-15T16:31:47.633Z,6.10
2022-12-15T16:34:20.468Z,6.10
2022-12-15T16:36:47.708Z,6.10
2022-12-15T16:39:25.604Z,6.10
2022-12-15T16:41:54.313Z,6.00
2022-12-15T16:44:22.370Z,6.00
2022-12-15T16:46:49.279Z,5.90
2022-12-15T16:49:16.224Z,5.90
2022-12-15T16:51:46.782Z,5.80
2022-12-15T16:54:26.310Z,5.80
2022-12-15T16:56:58.234Z,5.90
2022-12-15T16:59:33.872Z,5.80
2022-12-15T17:02:02.309Z,5.80
2022-12-15T17:04:29.340Z,5.80
2022-12-15T17:06:56.193Z,5.70
2022-12-15T17:09:25.555Z,5.70
2022-12-15T17:11:52.616Z,5.70
2022-12-15T17:14:19.505Z,5.70
2022-12-15T17:16:46.453Z,5.70
2022-12-15T17:19:19.211Z,5.70
2022-12-15T17:21:50.748Z,5.80
2022-12-15T17:24:20.313Z,5.80
2022-12-15T17:26:47.882Z,5.90
2022-12-15T17:29:21.038Z,5.90
2022-12-15T17:31:48.009Z,6.00
2022-12-15T17:34:35.188Z,6.00
2022-12-15T17:37:05.499Z,6.00
2022-12-15T17:39:35.353Z,6.10
2022-12-15T17:42:03.052Z,6.10
2022-12-15T17:44:36.156Z,6.20
2022-12-15T17:47:06.040Z,6.20
2022-12-15T17:49:35.983Z,6.20
2022-12-15T17:52:11.559Z,6.30
2022-12-15T17:54:38.558Z,6.30
2022-12-15T17:57:05.420Z,6.40
2022-12-15T17:59:32.278Z,6.40
2022-12-15T18:01:59.231Z,6.40
2022-12-15T18:04:26.409Z,6.40
2022-12-15T18:06:58.087Z,6.40
2022-12-15T18:09:28.642Z,6.40
2022-12-15T18:11:55.619Z,6.40
2022-12-15T18:14:23.017Z,6.40
2022-12-15T18:16:50.146Z,6.50
2022-12-15T18:19:16.998Z,6.40
2022-12-15T18:21:43.962Z,6.40
2022-12-15T18:24:13.572Z,6.40
2022-12-15T18:26:40.384Z,6.40
2022-12-15T18:29:17.948Z,6.30
2022-12-15T18:31:47.211Z,6.30
2022-12-15T18:34:17.511Z,6.30
2022-12-15T18:36:44.956Z,6.30
2022-12-15T18:39:23.785Z,6.20
2022-12-15T18:41:52.554Z,6.20
2022-12-15T18:44:28.746Z,6.10
2022-12-15T18:46:55.735Z,6.10
2022-12-15T18:49:23.719Z,6.00
2022-12-15T18:51:50.841Z,6.00
2022-12-15T18:54:20.866Z,6.00
2022-12-15T18:56:48.003Z,6.00
2022-12-15T18:59:16.486Z,6.00
2022-12-15T19:01:48.153Z,5.90
2022-12-15T19:04:15.569Z,5.90
2022-12-15T19:06:43.041Z,5.90
2022-12-15T19:09:22.120Z,5.90
2022-12-15T19:12:08.955Z,5.80
2022-12-15T19:14:41.376Z,5.80
2022-12-15T19:17:31.823Z,5.80
2022-12-15T19:20:17.517Z,5.80
2022-12-15T19:22:46.255Z,5.80
2022-12-15T19:25:26.369Z,5.80
2022-12-15T19:28:01.509Z,5.80
2022-12-15T19:30:41.617Z,5.70
2022-12-15T19:33:10.047Z,5.70
2022-12-15T19:35:38.194Z,5.60
2022-12-15T19:38:05.588Z,5.70
2022-12-15T19:40:34.330Z,5.60
2022-12-15T19:43:02.343Z,5.50
2022-12-15T19:45:31.329Z,5.50
2022-12-15T19:47:59.039Z,5.50
2022-12-15T19:50:33.455Z,5.40
2022-12-15T19:53:03.815Z,5.40
2022-12-15T19:55:33.075Z,5.40
2022-12-15T19:58:01.022Z,5.40
2022-12-15T20:00:28.076Z,5.40
2022-12-15T20:02:55.925Z,5.30
2022-12-15T20:05:25.130Z,5.30
2022-12-15T20:07:53.580Z,5.30
2022-12-15T20:10:31.874Z,5.30
2022-12-15T20:13:00.895Z,5.20
2022-12-15T20:15:27.873Z,5.20
2022-12-15T20:17:57.251Z,5.20
2022-12-15T20:20:26.965Z,5.10
2022-12-15T20:22:56.588Z,5.10
2022-12-15T20:25:32.320Z,5.10
2022-12-15T20:28:02.364Z,5.20
2022-12-15T20:30:33.204Z,5.10
2022-12-15T20:33:02.405Z,5.10
2022-12-15T20:35:33.069Z,5.10
2022-12-15T20:38:02.647Z,5.10
2022-12-15T20:40:30.473Z,5.00
2022-12-15T20:42:57.911Z,5.00
2022-12-15T20:45:26.868Z,4.90
2022-12-15T20:47:55.891Z,4.90
2022-12-15T20:50:32.836Z,4.90
2022-12-15T20:52:59.783Z,4.80
2022-12-15T20:55:26.811Z,4.80
2022-12-15T20:57:53.881Z,4.70
2022-12-15T21:00:21.889Z,4.70
2022-12-15T21:02:49.084Z,4.70
2022-12-15T21:05:24.366Z,4.70
2022-12-15T21:07:51.629Z,4.70
2022-12-15T21:10:20.530Z,4.70
2022-12-15T21:12:49.550Z,4.70
2022-12-15T21:15:22.458Z,4.70
2022-12-15T21:18:08.856Z,4.70
2022-12-15T21:20:41.803Z,4.70
2022-12-15T21:23:22.596Z,4.70
2022-12-15T21:25:49.946Z,4.70
2022-12-15T21:28:17.709Z,4.70
2022-12-15T21:30:44.962Z,4.70
2022-12-15T21:33:12.025Z,4.70
2022-12-15T21:35:40.422Z,4.60
2022-12-15T21:38:20.191Z,4.60
2022-12-15T21:40:46.985Z,4.60
2022-12-15T21:43:13.831Z,4.60
2022-12-15T21:45:40.688Z,4.60
2022-12-15T21:48:27.511Z,4.60
2022-12-15T21:50:54.316Z,4.60
2022-12-15T21:53:21.613Z,4.60
2022-12-15T21:55:48.439Z,4.60
2022-12-15T21:58:24.352Z,4.60
2022-12-15T22:00:51.298Z,4.60
2022-12-15T22:03:21.365Z,4.60
2022-12-15T22:05:48.250Z,4.50
2022-12-15T22:08:22.525Z,4.50
2022-12-15T22:10:52.036Z,4.60
2022-12-15T22:13:23.240Z,4.50
2022-12-15T22:15:54.660Z,4.60
2022-12-15T22:18:22.504Z,4.60
2022-12-15T22:20:50.759Z,4.60
2022-12-15T22:23:18.596Z,4.60
2022-12-15T22:25:47.721Z,4.60
2022-12-15T22:28:21.801Z,4.70
2022-12-15T22:30:52.745Z,4.70
2022-12-15T22:33:24.623Z,4.70
2022-12-15T22:35:53.477Z,4.70
2022-12-15T22:38:23.756Z,4.70
2022-12-15T22:40:53.639Z,4.70
2022-12-15T22:43:31.551Z,4.60
2022-12-15T22:45:59.758Z,4.70
2022-12-15T22:48:31.904Z,4.60
2022-12-15T22:50:59.320Z,4.60
2022-12-15T22:53:29.386Z,4.60
2022-12-15T22:55:56.293Z,4.60
2022-12-15T22:58:33.330Z,4.60
2022-12-15T23:01:01.278Z,4.60
2022-12-15T23:03:29.497Z,4.50
2022-12-15T23:05:57.214Z,4.50
2022-12-15T23:08:24.025Z,4.50
2022-12-15T23:11:09.463Z,4.50
2022-12-15T23:13:36.382Z,4.50
2022-12-15T23:16:23.055Z,4.50
2022-12-15T23:18:55.198Z,4.50
2022-12-15T23:21:23.749Z,4.50
2022-12-15T23:23:50.874Z,4.60
2022-12-15T23:26:20.747Z,4.70
2022-12-15T23:28:47.884Z,4.70
2022-12-15T23:31:14.940Z,4.80
2022-12-15T23:33:41.878Z,4.80
2022-12-15T23:36:09.926Z,4.90
2022-12-15T23:38:36.727Z,5.00
2022-12-15T23:41:03.738Z,5.00
2022-12-15T23:43:33.198Z,5.10
2022-12-15T23:46:07.294Z,5.10
2022-12-15T23:48:38.326Z,5.20
2022-12-15T23:51:09.550Z,5.20
2022-12-15T23:53:37.059Z,5.30
2022-12-15T23:56:18.658Z,5.30
2022-12-15T23:58:46.869Z,5.40
